createdAt,value
2023-03-25T00:00:30.294Z,14.27
2023-03-25T00:03:00.107Z,15.03
2023-03-25T00:05:28.437Z,14.43
2023-03-25T00:07:57.482Z,14.50
2023-03-25T00:10:25.829Z,16.50
2023-03-25T00:12:54.094Z,15.50
2023-03-25T00:15:22.461Z,16.27
2023-03-25T00:17:50.855Z,14.87
2023-03-25T00:20:21.546Z,15.67
2023-03-25T00:22:49.891Z,15.43
2023-03-25T00:25:20.733Z,16.93
2023-03-25T00:27:51.106Z,16.33
2023-03-25T00:30:21.261Z,16.60
2023-03-25T00:32:52.861Z,16.23
2023-03-25T00:35:24.203Z,15.43
2023-03-25T00:37:57.842Z,15.27
2023-03-25T00:40:28.503Z,16.30
2023-03-25T00:42:57.378Z,15.13
2023-03-25T00:45:25.723Z,16.47
2023-03-25T00:47:54.126Z,16.40
2023-03-25T00:50:24.646Z,15.23
2023-03-25T00:52:53.564Z,15.50
2023-03-25T00:55:22.403Z,16.80
2023-03-25T00:57:50.699Z,16.23
2023-03-25T01:00:20.504Z,15.03
2023-03-25T01:02:54.287Z,15.40
2023-03-25T01:05:25.458Z,15.57
2023-03-25T01:07:53.865Z,16.03
2023-03-25T01:10:22.333Z,14.97
2023-03-25T01:12:50.831Z,15.97
2023-03-25T01:15:19.168Z,15.93
2023-03-25T01:17:47.525Z,14.43
2023-03-25T01:20:15.961Z,15.33
2023-03-25T01:22:45.825Z,14.97
2023-03-25T01:25:14.168Z,15.73
2023-03-25T01:27:42.511Z,14.60
2023-03-25T01:30:12.267Z,15.03
2023-03-25T01:32:40.905Z,15.27
2023-03-25T01:35:11.001Z,14.77
2023-03-25T01:37:39.600Z,15.20
2023-03-25T01:40:11.953Z,15.90
2023-03-25T01:42:40.228Z,17.30
2023-03-25T01:45:23.962Z,14.77
2023-03-25T01:47:58.585Z,15.00
2023-03-25T01:50:29.024Z,14.33
2023-03-25T01:52:59.982Z,14.93
2023-03-25T01:55:30.056Z,17.10
2023-03-25T01:58:00.032Z,15.90
2023-03-25T02:00:28.417Z,14.60
2023-03-25T02:03:00.747Z,14.30
2023-03-25T02:05:36.062Z,13.93
2023-03-25T02:08:09.266Z,14.63
2023-03-25T02:10:39.405Z,14.83
2023-03-25T02:13:08.896Z,14.60
2023-03-25T02:15:51.920Z,15.63
2023-03-25T02:18:36.254Z,14.50
2023-03-25T02:21:46.280Z,15.13
2023-03-25T02:24:58.010Z,15.37
2023-03-25T02:27:47.829Z,15.80
2023-03-25T02:30:38.913Z,14.77
2023-03-25T02:33:36.045Z,14.90
2023-03-25T02:36:42.860Z,14.57
2023-03-25T02:39:16.147Z,15.90
2023-03-25T02:41:52.088Z,15.17
2023-03-25T02:44:29.582Z,16.33
2023-03-25T02:47:01.989Z,15.77
2023-03-25T02:49:33.621Z,16.20
2023-03-25T02:52:06.570Z,14.80
2023-03-25T02:54:39.336Z,15.87
2023-03-25T02:57:09.463Z,15.00
2023-03-25T02:59:40.146Z,15.60
2023-03-25T03:02:11.703Z,14.37
2023-03-25T03:04:48.712Z,14.60
2023-03-25T03:07:24.946Z,13.93
2023-03-25T03:10:02.046Z,15.50
2023-03-25T03:12:47.132Z,15.67
2023-03-25T03:15:27.092Z,14.37
2023-03-25T03:18:15.830Z,14.93
2023-03-25T03:20:54.656Z,14.87
2023-03-25T03:23:28.894Z,16.30
2023-03-25T03:26:05.162Z,16.63
2023-03-25T03:28:38.034Z,15.00
2023-03-25T03:31:08.720Z,14.53
2023-03-25T03:33:43.475Z,14.93
2023-03-25T03:36:15.358Z,15.77
2023-03-25T03:38:50.094Z,15.47
2023-03-25T03:41:24.139Z,16.37
2023-03-25T03:43:57.248Z,14.83
2023-03-25T03:46:31.196Z,16.17
2023-03-25T03:49:01.711Z,15.80
2023-03-25T03:51:36.035Z,16.07
2023-03-25T03:54:09.337Z,15.20
2023-03-25T03:56:46.705Z,16.23
2023-03-25T03:59:22.218Z,16.20
2023-03-25T04:01:57.492Z,15.13
2023-03-25T04:04:27.142Z,15.60
2023-03-25T04:06:59.240Z,15.23
2023-03-25T04:09:34.002Z,16.00
2023-03-25T04:12:09.997Z,15.97
2023-03-25T04:14:39.207Z,15.80
2023-03-25T04:17:07.753Z,15.13
2023-03-25T04:19:36.213Z,15.70
2023-03-25T04:22:06.077Z,16.30
2023-03-25T04:24:37.773Z,15.30
2023-03-25T04:27:09.779Z,15.20
2023-03-25T04:29:40.160Z,16.53
2023-03-25T04:32:10.254Z,17.70
2023-03-25T04:34:38.608Z,16.97
2023-03-25T04:37:07.169Z,17.33
2023-03-25T04:39:35.663Z,17.60
2023-03-25T04:42:04.347Z,16.97
2023-03-25T04:44:39.121Z,16.97
2023-03-25T04:47:12.056Z,18.27
2023-03-25T04:49:41.505Z,16.90
2023-03-25T04:52:10.432Z,16.53
2023-03-25T04:54:40.270Z,16.20
2023-03-25T04:57:09.877Z,15.40
2023-03-25T04:59:39.689Z,16.60
2023-03-25T05:02:13.295Z,16.37
2023-03-25T05:04:47.553Z,16.13
2023-03-25T05:07:18.957Z,17.27
2023-03-25T05:09:47.309Z,16.20
2023-03-25T05:12:15.819Z,17.23
2023-03-25T05:14:45.583Z,18.57
2023-03-25T05:17:13.816Z,18.67
2023-03-25T05:19:45.426Z,17.97
2023-03-25T05:22:14.602Z,17.67
2023-03-25T05:24:45.263Z,17.97
2023-03-25T05:27:13.639Z,17.90
2023-03-25T05:29:44.716Z,18.57
2023-03-25T05:32:17.948Z,19.10
2023-03-25T05:34:46.692Z,17.50
2023-03-25T05:37:15.187Z,17.93
2023-03-25T05:39:45.277Z,19.57
2023-03-25T05:42:14.146Z,19.10
2023-03-25T05:44:46.925Z,20.63
2023-03-25T05:47:16.605Z,19.77
2023-03-25T05:49:45.068Z,21.33
2023-03-25T05:52:13.374Z,22.23
2023-03-25T05:54:42.109Z,20.03
2023-03-25T05:57:10.518Z,20.03
2023-03-25T05:59:40.759Z,21.43
2023-03-25T06:02:13.043Z,19.37
2023-03-25T06:04:43.102Z,19.03
2023-03-25T06:07:14.425Z,18.60
2023-03-25T06:09:46.274Z,18.33
2023-03-25T06:12:15.272Z,19.20
2023-03-25T06:14:45.945Z,17.63
2023-03-25T06:17:14.381Z,14.83
2023-03-25T06:19:44.144Z,14.40
2023-03-25T06:22:13.528Z,14.10
2023-03-25T06:24:42.678Z,14.70
2023-03-25T06:27:15.853Z,13.83
2023-03-25T06:29:44.567Z,13.03
2023-03-25T06:32:15.163Z,13.00
2023-03-25T06:34:44.893Z,12.07
2023-03-25T06:37:13.181Z,11.53
2023-03-25T06:39:41.802Z,12.40
2023-03-25T06:42:10.075Z,10.93
2023-03-25T06:44:38.455Z,11.70
2023-03-25T06:47:07.094Z,10.63
2023-03-25T06:49:35.511Z,11.10
2023-03-25T06:52:08.265Z,10.73
2023-03-25T06:54:36.618Z,12.80
2023-03-25T06:57:05.509Z,11.53
2023-03-25T06:59:34.123Z,11.53
2023-03-25T07:02:02.685Z,10.83
2023-03-25T07:04:31.500Z,12.30
2023-03-25T07:06:59.814Z,9.97
2023-03-25T07:09:29.564Z,9.87
2023-03-25T07:11:57.867Z,10.30
2023-03-25T07:14:26.115Z,10.70
2023-03-25T07:16:54.447Z,10.47
2023-03-25T07:19:22.719Z,11.27
2023-03-25T07:21:50.993Z,10.77
2023-03-25T07:24:19.246Z,10.83
2023-03-25T07:26:52.965Z,10.10
2023-03-25T07:29:21.734Z,10.60
2023-03-25T07:31:54.181Z,9.03
2023-03-25T07:34:29.411Z,8.50
2023-03-25T07:36:58.934Z,10.30
2023-03-25T07:39:27.213Z,10.23
2023-03-25T07:41:56.984Z,11.60
2023-03-25T07:44:25.312Z,10.20
2023-03-25T07:46:53.642Z,9.83
2023-03-25T07:49:22.083Z,9.60
2023-03-25T07:51:50.335Z,9.67
2023-03-25T07:54:20.745Z,9.63
2023-03-25T07:56:49.175Z,9.63
2023-03-25T07:59:18.910Z,10.60
2023-03-25T08:01:47.317Z,10.83
2023-03-25T08:04:15.724Z,9.67
2023-03-25T08:06:44.091Z,9.90
2023-03-25T08:09:12.415Z,9.83
2023-03-25T08:11:40.784Z,9.20
2023-03-25T08:14:13.378Z,9.73
2023-03-25T08:16:43.158Z,9.70
2023-03-25T08:19:11.731Z,9.03
2023-03-25T08:21:40.083Z,8.97
2023-03-25T08:24:08.541Z,7.47
2023-03-25T08:26:37.649Z,6.27
2023-03-25T08:29:07.708Z,7.80
2023-03-25T08:31:38.688Z,7.93
2023-03-25T08:34:08.491Z,6.57
2023-03-25T08:36:44.438Z,6.33
2023-03-25T08:39:12.864Z,7.50
2023-03-25T08:41:41.553Z,8.00
2023-03-25T08:44:09.816Z,8.80
2023-03-25T08:46:40.529Z,8.93
2023-03-25T08:49:10.313Z,10.10
2023-03-25T08:51:38.629Z,8.70
2023-03-25T08:54:07.172Z,9.67
2023-03-25T08:56:35.541Z,9.10
2023-03-25T08:59:04.004Z,7.80
2023-03-25T09:01:32.348Z,8.67
2023-03-25T09:04:00.725Z,8.40
2023-03-25T09:10:21.756Z,9.00
2023-03-25T09:12:50.120Z,8.03
2023-03-25T09:15:18.552Z,8.23
2023-03-25T09:17:46.983Z,8.00
2023-03-25T09:20:15.927Z,7.68
2023-03-25T09:22:44.464Z,6.68
2023-03-25T09:25:14.167Z,6.63
2023-03-25T09:27:43.997Z,8.10
2023-03-25T09:30:13.085Z,7.30
2023-03-25T09:32:41.373Z,8.30
2023-03-25T09:35:10.017Z,8.27
2023-03-25T09:37:38.706Z,7.65
2023-03-25T09:40:08.617Z,6.78
2023-03-25T09:42:58.643Z,6.75
2023-03-25T09:45:33.816Z,7.13
2023-03-25T09:48:06.793Z,7.43
2023-03-25T09:50:37.061Z,5.38
2023-03-25T09:53:09.496Z,7.45
2023-03-25T09:55:42.370Z,9.00
2023-03-25T09:58:27.705Z,8.43
2023-03-25T10:01:01.528Z,8.23
2023-03-25T10:03:36.823Z,7.70
2023-03-25T10:06:14.368Z,8.23
2023-03-25T10:09:00.886Z,7.50
2023-03-25T10:11:37.551Z,6.63
2023-03-25T10:14:12.878Z,5.15
2023-03-25T10:16:54.854Z,4.75
2023-03-25T10:19:42.069Z,3.63
2023-03-25T10:22:18.377Z,3.72
2023-03-25T10:24:51.059Z,4.70
2023-03-25T10:27:24.229Z,4.05
2023-03-25T10:29:57.760Z,3.83
2023-03-25T10:32:33.398Z,4.88
2023-03-25T10:35:05.489Z,4.85
2023-03-25T10:37:36.652Z,3.72
2023-03-25T10:40:51.783Z,4.75
2023-03-25T10:43:27.583Z,5.07
2023-03-25T10:46:01.687Z,4.40
2023-03-25T10:48:32.072Z,4.70
2023-03-25T10:51:06.474Z,4.38
2023-03-25T10:53:34.932Z,4.93
2023-03-25T10:56:09.070Z,4.30
2023-03-25T10:58:40.726Z,3.72
2023-03-25T11:01:15.436Z,3.60
2023-03-25T11:03:45.143Z,3.50
2023-03-25T11:06:24.287Z,3.88
2023-03-25T11:09:18.517Z,4.03
2023-03-25T11:11:47.933Z,3.70
2023-03-25T11:14:17.562Z,4.32
2023-03-25T11:16:49.826Z,4.00
2023-03-25T11:19:23.858Z,4.32
2023-03-25T11:21:56.621Z,4.32
2023-03-25T11:24:31.653Z,3.72
2023-03-25T11:27:00.479Z,4.03
2023-03-25T11:29:30.613Z,3.75
2023-03-25T11:32:08.270Z,4.10
2023-03-25T11:34:42.451Z,3.13
2023-03-25T11:37:18.216Z,3.35
2023-03-25T11:39:52.220Z,3.10
2023-03-25T11:42:32.652Z,3.35
2023-03-25T11:45:03.729Z,3.50
2023-03-25T11:47:36.157Z,3.50
2023-03-25T11:50:06.045Z,3.53
2023-03-25T11:52:41.774Z,3.75
2023-03-25T11:55:18.573Z,3.55
2023-03-25T11:57:48.504Z,3.63
2023-03-25T12:00:31.710Z,4.30
2023-03-25T12:03:07.232Z,4.68
2023-03-25T12:05:35.860Z,4.57
2023-03-25T12:08:15.604Z,4.85
2023-03-25T12:10:56.681Z,5.93
2023-03-25T12:13:40.877Z,4.63
2023-03-25T12:16:21.792Z,3.63
2023-03-25T12:19:01.760Z,3.63
2023-03-25T12:21:43.952Z,4.20
2023-03-25T12:24:25.772Z,3.55
2023-03-25T12:27:08.320Z,4.50
2023-03-25T12:29:44.214Z,3.50
2023-03-25T12:32:21.300Z,4.03
2023-03-25T12:35:01.794Z,4.45
2023-03-25T12:37:36.800Z,3.35
2023-03-25T12:40:34.387Z,3.72
2023-03-25T12:43:18.206Z,3.50
2023-03-25T12:46:08.240Z,3.08
2023-03-25T12:48:51.972Z,3.38
2023-03-25T12:51:34.237Z,2.55
2023-03-25T12:54:17.750Z,2.72
2023-03-25T12:56:58.702Z,3.70
2023-03-25T12:59:49.015Z,2.75
2023-03-25T13:02:42.706Z,2.80
2023-03-25T13:05:19.105Z,2.90
2023-03-25T13:07:54.024Z,2.40
2023-03-25T13:10:24.230Z,3.15
2023-03-25T13:12:54.940Z,3.60
2023-03-25T13:15:27.744Z,2.50
2023-03-25T13:18:00.826Z,3.40
2023-03-25T13:20:32.748Z,2.92
2023-03-25T13:23:05.473Z,3.30
2023-03-25T13:25:49.049Z,2.28
2023-03-25T13:28:23.043Z,3.17
2023-03-25T13:30:52.744Z,2.97
2023-03-25T13:33:25.097Z,2.63
2023-03-25T13:35:57.339Z,2.38
2023-03-25T13:38:32.475Z,2.88
2023-03-25T13:41:11.574Z,2.45
2023-03-25T13:43:48.692Z,2.60
2023-03-25T13:46:22.541Z,2.70
2023-03-25T13:48:56.372Z,2.72
2023-03-25T13:51:25.206Z,2.60
2023-03-25T13:54:00.964Z,5.32
2023-03-25T13:57:00.333Z,2.83
2023-03-25T13:59:58.276Z,2.60
2023-03-25T14:02:40.469Z,3.25
2023-03-25T14:05:40.073Z,2.63
2023-03-25T14:08:36.541Z,2.75
2023-03-25T14:11:18.805Z,2.95
2023-03-25T14:13:50.876Z,2.97
2023-03-25T14:16:23.555Z,3.13
2023-03-25T14:18:56.133Z,2.40
2023-03-25T14:21:33.798Z,3.28
2023-03-25T14:24:08.004Z,3.50
2023-03-25T14:26:42.431Z,3.50
2023-03-25T14:29:22.253Z,3.70
2023-03-25T14:32:32.375Z,2.67
2023-03-25T14:35:38.269Z,3.40
2023-03-25T14:38:49.913Z,2.78
2023-03-25T14:41:18.554Z,2.30
2023-03-25T14:44:02.182Z,3.00
2023-03-25T14:46:36.971Z,2.50
2023-03-25T14:49:21.890Z,2.03
2023-03-25T14:51:53.165Z,2.15
2023-03-25T14:54:29.799Z,2.40
2023-03-25T14:57:04.066Z,2.85
2023-03-25T14:59:38.666Z,2.83
2023-03-25T15:02:16.330Z,2.92
2023-03-25T15:04:46.696Z,2.70
2023-03-25T15:07:20.728Z,2.78
2023-03-25T15:09:53.685Z,2.88
2023-03-25T15:12:26.428Z,3.17
2023-03-25T15:15:04.797Z,3.33
2023-03-25T15:17:46.244Z,3.67
2023-03-25T15:20:38.836Z,3.50
2023-03-25T15:23:43.397Z,3.50
2023-03-25T15:26:15.956Z,4.03
2023-03-25T15:29:17.391Z,3.65
2023-03-25T15:32:02.215Z,3.33
2023-03-25T15:35:01.168Z,3.13
2023-03-25T15:38:24.689Z,4.15
2023-03-25T15:41:12.702Z,4.30
2023-03-25T15:44:06.578Z,3.72
2023-03-25T15:47:00.097Z,3.47
2023-03-25T15:50:07.847Z,3.85
2023-03-25T15:52:54.588Z,3.22
2023-03-25T15:55:25.296Z,3.60
2023-03-25T15:57:59.307Z,3.90
2023-03-25T16:00:30.916Z,3.90
2023-03-25T16:03:08.667Z,4.30
2023-03-25T16:05:39.902Z,3.28
2023-03-25T16:08:13.135Z,3.45
2023-03-25T16:11:17.561Z,3.22
2023-03-25T16:13:46.034Z,3.25
2023-03-25T16:16:17.886Z,3.72
2023-03-25T16:18:48.212Z,3.50
2023-03-25T16:21:16.660Z,3.03
2023-03-25T16:23:45.203Z,3.58
2023-03-25T16:26:16.326Z,3.38
2023-03-25T16:28:44.952Z,3.13
2023-03-25T16:31:34.490Z,3.40
2023-03-25T16:34:13.838Z,3.63
2023-03-25T16:36:44.042Z,3.05
2023-03-25T16:39:15.883Z,2.70
2023-03-25T16:41:48.736Z,3.60
2023-03-25T16:44:20.577Z,2.85
2023-03-25T16:46:50.329Z,2.78
2023-03-25T16:49:37.430Z,4.50
2023-03-25T16:52:19.778Z,3.20
2023-03-25T16:55:21.257Z,3.40
2023-03-25T16:57:49.689Z,3.58
2023-03-25T17:00:24.591Z,3.55
2023-03-25T17:02:54.193Z,3.63
2023-03-25T17:05:26.602Z,3.67
2023-03-25T17:08:00.516Z,4.05
2023-03-25T17:10:31.506Z,3.00
2023-03-25T17:13:05.412Z,2.78
2023-03-25T17:15:35.368Z,3.45
2023-03-25T17:18:07.748Z,5.05
2023-03-25T17:20:41.446Z,4.18
2023-03-25T17:23:22.138Z,3.83
2023-03-25T17:25:54.964Z,3.88
2023-03-25T17:28:33.957Z,3.37
2023-03-25T17:31:18.291Z,3.00
2023-03-25T17:33:50.136Z,3.47
2023-03-25T17:36:21.883Z,2.63
2023-03-25T17:38:53.537Z,3.20
2023-03-25T17:41:22.399Z,3.23
2023-03-25T17:43:54.225Z,3.23
2023-03-25T17:46:24.591Z,3.40
2023-03-25T17:48:57.733Z,3.30
2023-03-25T17:51:29.535Z,3.97
2023-03-25T17:53:58.046Z,3.13
2023-03-25T17:56:27.923Z,3.20
2023-03-25T17:58:59.946Z,3.13
2023-03-25T18:01:28.614Z,3.40
2023-03-25T18:03:56.941Z,3.70
2023-03-25T18:06:26.877Z,3.23
2023-03-25T18:08:55.374Z,4.20
2023-03-25T18:11:23.718Z,3.23
2023-03-25T18:13:52.160Z,3.50
2023-03-25T18:16:22.682Z,2.80
2023-03-25T18:18:51.173Z,3.57
2023-03-25T18:21:21.058Z,3.50
2023-03-25T18:23:50.785Z,3.57
2023-03-25T18:26:20.184Z,3.60
2023-03-25T18:28:49.141Z,3.40
2023-03-25T18:31:18.768Z,3.77
2023-03-25T18:33:48.395Z,4.17
2023-03-25T18:36:16.915Z,4.00
2023-03-25T18:38:46.004Z,4.50
2023-03-25T18:41:17.318Z,4.23
2023-03-25T18:43:46.156Z,3.30
2023-03-25T18:46:15.084Z,3.40
2023-03-25T18:48:43.801Z,4.10
2023-03-25T18:51:13.281Z,3.77
2023-03-25T18:53:42.265Z,3.60
2023-03-25T18:56:11.345Z,3.60
2023-03-25T18:58:41.052Z,3.83
2023-03-25T19:01:10.092Z,4.20
2023-03-25T19:03:41.332Z,3.40
2023-03-25T19:06:11.624Z,3.10
2023-03-25T19:08:40.212Z,3.60
2023-03-25T19:11:20.056Z,3.87
2023-03-25T19:13:52.605Z,3.57
2023-03-25T19:16:21.653Z,3.37
2023-03-25T19:18:50.327Z,3.07
2023-03-25T19:21:20.668Z,3.10
2023-03-25T19:23:49.010Z,3.50
2023-03-25T19:26:17.282Z,3.13
2023-03-25T19:28:45.637Z,3.47
2023-03-25T19:31:16.682Z,3.20
2023-03-25T19:33:45.172Z,3.40
2023-03-25T19:36:16.107Z,3.07
2023-03-25T19:38:44.448Z,2.80
2023-03-25T19:41:15.562Z,3.57
2023-03-25T19:43:43.991Z,3.33
2023-03-25T19:46:14.123Z,3.00
2023-03-25T19:48:42.442Z,3.30
2023-03-25T19:51:10.997Z,3.33
2023-03-25T19:53:39.313Z,3.07
2023-03-25T19:56:09.610Z,3.27
2023-03-25T19:58:37.890Z,2.90
2023-03-25T20:01:06.677Z,3.40
2023-03-25T20:03:38.616Z,3.20
2023-03-25T20:06:08.037Z,3.33
2023-03-25T20:08:36.444Z,3.43
2023-03-25T20:11:10.513Z,3.50
2023-03-25T20:13:39.094Z,3.90
2023-03-25T20:16:08.491Z,2.83
2023-03-25T20:18:39.048Z,3.27
2023-03-25T20:21:08.370Z,3.10
2023-03-25T20:23:36.656Z,3.30
2023-03-25T20:26:05.656Z,3.10
2023-03-25T20:28:34.112Z,3.07
2023-03-25T20:31:02.471Z,3.37
2023-03-25T20:33:30.871Z,3.50
2023-03-25T20:36:00.753Z,3.50
2023-03-25T20:38:29.084Z,4.33
2023-03-25T20:40:57.407Z,3.67
2023-03-25T20:43:25.812Z,3.90
2023-03-25T20:45:56.575Z,3.80
2023-03-25T20:48:25.708Z,3.87
2023-03-25T20:51:02.612Z,4.70
2023-03-25T20:53:31.316Z,3.63
2023-03-25T20:56:01.384Z,4.47
2023-03-25T20:58:30.798Z,3.83
2023-03-25T21:01:00.715Z,4.00
2023-03-25T21:03:29.309Z,3.87
2023-03-25T21:06:01.651Z,3.40
2023-03-25T21:08:37.145Z,3.50
2023-03-25T21:11:06.965Z,3.30
2023-03-25T21:13:35.748Z,3.53
2023-03-25T21:16:04.647Z,3.87
2023-03-25T21:18:32.990Z,3.47
2023-03-25T21:21:02.889Z,4.00
2023-03-25T21:23:32.138Z,3.63
2023-03-25T21:26:09.413Z,3.63
2023-03-25T21:28:39.404Z,3.60
2023-03-25T21:31:10.073Z,3.37
2023-03-25T21:33:38.860Z,4.07
2023-03-25T21:36:09.642Z,3.37
2023-03-25T21:38:38.104Z,3.97
2023-03-25T21:41:08.984Z,3.53
2023-03-25T21:43:39.771Z,3.77
2023-03-25T21:46:08.370Z,3.30
2023-03-25T21:48:39.018Z,3.90
2023-03-25T21:51:11.931Z,4.30
2023-03-25T21:53:43.905Z,3.13
2023-03-25T21:56:15.599Z,3.70
2023-03-25T21:58:44.274Z,3.40
2023-03-25T22:01:15.175Z,3.87
2023-03-25T22:03:45.541Z,3.93
2023-03-25T22:06:16.203Z,3.97
2023-03-25T22:08:44.950Z,3.77
2023-03-25T22:11:16.680Z,3.60
2023-03-25T22:13:45.766Z,3.50
2023-03-25T22:16:15.722Z,3.37
2023-03-25T22:18:44.615Z,3.30
2023-03-25T22:21:15.055Z,3.20
2023-03-25T22:23:45.086Z,4.50
2023-03-25T22:26:15.744Z,4.10
2023-03-25T22:28:44.307Z,3.87
2023-03-25T22:31:13.860Z,3.83
2023-03-25T22:33:42.772Z,3.53
2023-03-25T22:36:13.141Z,3.33
2023-03-25T22:38:42.366Z,3.90
2023-03-25T22:41:10.890Z,3.73
2023-03-25T22:43:40.928Z,3.33
2023-03-25T22:46:10.561Z,3.20
2023-03-25T22:48:39.913Z,3.50
2023-03-25T22:51:09.530Z,3.70
2023-03-25T22:53:37.954Z,3.37
2023-03-25T22:56:07.298Z,3.43
2023-03-25T22:58:36.693Z,3.23
2023-03-25T23:01:17.628Z,3.40
2023-03-25T23:03:46.161Z,3.50
2023-03-25T23:06:15.466Z,2.80
2023-03-25T23:08:44.621Z,3.20
2023-03-25T23:11:16.852Z,2.90
2023-03-25T23:13:47.835Z,3.00
2023-03-25T23:16:21.611Z,2.80
2023-03-25T23:18:50.554Z,2.90
2023-03-25T23:21:21.091Z,2.90
2023-03-25T23:23:53.361Z,3.10
2023-03-25T23:26:24.837Z,3.20
2023-03-25T23:28:54.460Z,3.27
2023-03-25T23:31:28.083Z,3.30
2023-03-25T23:33:58.699Z,3.10
2023-03-25T23:36:28.355Z,3.37
2023-03-25T23:38:56.836Z,2.97
2023-03-25T23:41:25.928Z,3.43
2023-03-25T23:43:55.981Z,3.10
2023-03-25T23:46:27.184Z,3.20
2023-03-25T23:48:55.837Z,2.50
2023-03-25T23:51:25.882Z,2.63
2023-03-25T23:53:54.485Z,2.83
2023-03-25T23:56:25.215Z,3.10
2023-03-25T23:58:53.897Z,3.40
